Thunder radar more information blitzortung!


Radar de pluja more information rain snow radar


Visita la nostra xarxa de llocs de meteo:

Template documentation
and downloads

And another site



No particular awareness of the weather is required.    There are no Weather-warnings

Pagina Historial Weather Underground text

Diari Resum May 15, 2017 Unitats:  Mètric    Imperial   Tant
« Previous Dia
SegĂźent Dia »
Diari Setmana Mensual Anual Personalitzada
  Maxima: Minima: Media:
Temperatura: 28.5 °C 14.1 °C 22 °C
Punt de rosada: 13.3 °C 9.0 °C 10.7 °C
Humitat: 74 % 35 % 50 %
Wind Speed: 20.9 km/h 0.0 km/h 5.8 km/h
RĂ fegues de vent: 20.9 km/h - -
Vent:- - SSE
Pression baro: 1029.0 hPa 1024.9 hPa -
Precipitacions: 0.0 mm    
Historical Graphs
 
 
Dades de taula per May 15, 2017
Temps Temperatura Punt de rosada Pression baro Vent Wind Speed RĂ fegues de vent Humitat Rainfall Rate (Hourly)
00:04 17.1 °C 10.0 °C 1026.0 hPa Calm     63 % 0.0 mm
00:05 14.2 °C 9.4 °C 1026.0 hPa WSW 1.6 km/h 3.2 km/h 73 % 0.0 mm
00:15 14.1 °C 9.6 °C 1026.0 hPa Calm     74 % 0.0 mm
00:25 14.2 °C 9.4 °C 1027.0 hPa Calm   1.6 km/h 73 % 0.0 mm
00:35 14.2 °C 9.6 °C 1027.0 hPa Calm     74 % 0.0 mm
00:45 14.1 °C 9.6 °C 1027.0 hPa Calm     74 % 0.0 mm
00:55 14.3 °C 9.7 °C 1026.0 hPa Calm     74 % 0.0 mm
01:05 14.3 °C 9.7 °C 1026.0 hPa Calm     74 % 0.0 mm
01:15 14.1 °C 9.6 °C 1027.0 hPa WSW 1.6 km/h 3.2 km/h 74 % 0.0 mm
01:25 14.1 °C 9.6 °C 1027.0 hPa Calm   1.6 km/h 74 % 0.0 mm
01:35 14.2 °C 9.6 °C 1027.0 hPa Calm     74 % 0.0 mm
01:45 14.3 °C 9.7 °C 1027.0 hPa Calm     74 % 0.0 mm
01:55 14.1 °C 9.6 °C 1027.0 hPa North 3.2 km/h 3.2 km/h 74 % 0.0 mm
02:05 14.3 °C 9.7 °C 1027.0 hPa Calm   3.2 km/h 74 % 0.0 mm
02:15 14.3 °C 9.5 °C 1027.0 hPa East 3.2 km/h 3.2 km/h 73 % 0.0 mm
02:25 14.1 °C 9.3 °C 1027.0 hPa SW 3.2 km/h 4.8 km/h 73 % 0.0 mm
02:35 14.4 °C 9.6 °C 1027.0 hPa SW 3.2 km/h 4.8 km/h 73 % 0.0 mm
02:45 14.7 °C 10.1 °C 1028.0 hPa SW 1.6 km/h 3.2 km/h 74 % 0.0 mm
02:55 15.2 °C 10.6 °C 1028.0 hPa Calm   3.2 km/h 74 % 0.0 mm
03:05 16.1 °C 11.3 °C 1028.0 hPa Calm   3.2 km/h 73 % 0.0 mm
03:15 16.4 °C 11.1 °C 1028.0 hPa SSW 3.2 km/h 4.8 km/h 71 % 0.0 mm
03:25 16.2 °C 10.7 °C 1028.0 hPa SW 1.6 km/h 3.2 km/h 70 % 0.0 mm
03:35 16.3 °C 10.8 °C 1028.0 hPa SW 1.6 km/h 3.2 km/h 70 % 0.0 mm
03:45 17.6 °C 11.8 °C 1028.0 hPa SSW 1.6 km/h 1.6 km/h 69 % 0.0 mm
03:55 18.1 °C 12.1 °C 1028.0 hPa South 1.6 km/h 4.8 km/h 68 % 0.0 mm
04:05 19.0 °C 12.3 °C 1028.0 hPa ESE 1.6 km/h 4.8 km/h 65 % 0.0 mm
04:15 18.9 °C 12.2 °C 1028.0 hPa ENE 3.2 km/h 6.4 km/h 65 % 0.0 mm
04:25 19.4 °C 12.2 °C 1028.0 hPa NE 4.8 km/h 4.8 km/h 63 % 0.0 mm
04:35 19.6 °C 12.4 °C 1028.0 hPa NE 3.2 km/h 4.8 km/h 63 % 0.0 mm
04:45 20.0 °C 12.2 °C 1028.0 hPa NE 1.6 km/h 6.4 km/h 61 % 0.0 mm
04:55 20.2 °C 11.9 °C 1028.0 hPa NNE 4.8 km/h 8.0 km/h 59 % 0.0 mm
05:05 20.9 °C 12.6 °C 1028.0 hPa NNE 1.6 km/h 9.7 km/h 59 % 0.0 mm
05:15 21.6 °C 13.0 °C 1028.0 hPa NE 3.2 km/h 4.8 km/h 58 % 0.0 mm
05:25 22.0 °C 12.8 °C 1028.0 hPa NE 3.2 km/h 6.4 km/h 56 % 0.0 mm
05:35 22.4 °C 13.2 °C 1028.0 hPa ENE 3.2 km/h 4.8 km/h 56 % 0.0 mm
05:45 22.5 °C 13.0 °C 1028.0 hPa ENE 1.6 km/h 4.8 km/h 55 % 0.0 mm
10:54 23.3 °C 13.2 °C 1028.0 hPa ENE 5.6 km/h 5.6 km/h 53 % 0.0 mm
10:59 23.3 °C 12.9 °C 1028.0 hPa NE 3.7 km/h 4.2 km/h 52 % 0.0 mm
11:04 23.8 °C 13.3 °C 1028.0 hPa ESE 3.9 km/h 3.9 km/h 52 % 0.0 mm
11:09 24.0 °C 13.2 °C 1028.0 hPa ESE 9.3 km/h 9.3 km/h 51 % 0.0 mm
11:14 23.8 °C 12.7 °C 1028.0 hPa ENE 9.0 km/h 9.0 km/h 50 % 0.0 mm
11:19 24.1 °C 12.7 °C 1028.0 hPa NNE 2.3 km/h   49 % 0.0 mm
11:24 24.3 °C 12.9 °C 1028.0 hPa ESE 5.6 km/h 5.6 km/h 49 % 0.0 mm
11:29 24.3 °C 12.6 °C 1028.0 hPa ENE 5.6 km/h 5.6 km/h 48 % 0.0 mm
11:34 24.4 °C 12.7 °C 1028.0 hPa ENE 11.1 km/h 11.1 km/h 48 % 0.0 mm
11:39 24.3 °C 12.6 °C 1028.0 hPa ESE 6.4 km/h 6.4 km/h 48 % 0.0 mm
11:44 24.4 °C 12.3 °C 1028.0 hPa NNE 9.3 km/h 9.3 km/h 47 % 0.0 mm
11:49 24.7 °C 12.6 °C 1028.0 hPa NNE 5.6 km/h 5.6 km/h 47 % 0.0 mm
11:54 24.4 °C 12.0 °C 1028.0 hPa East 13.0 km/h 13.0 km/h 46 % 0.0 mm
11:59 24.4 °C 12.3 °C 1028.0 hPa NNE 7.4 km/h 7.4 km/h 47 % 0.0 mm
12:04 24.7 °C 12.6 °C 1028.0 hPa East 7.4 km/h 7.4 km/h 47 % 0.0 mm
12:09 24.9 °C 12.5 °C 1029.0 hPa ENE 5.6 km/h   46 % 0.0 mm
12:14 25.0 °C 12.2 °C 1029.0 hPa SE 9.7 km/h 9.7 km/h 45 % 0.0 mm
12:24 25.2 °C 12.4 °C 1028.0 hPa NE 5.6 km/h 5.6 km/h 45 % 0.0 mm
12:29 26.0 °C 13.2 °C 1028.0 hPa North 1.9 km/h   45 % 0.0 mm
12:34 26.1 °C 12.9 °C 1028.0 hPa ESE 7.9 km/h 7.9 km/h 44 % 0.0 mm
12:35 26.0 °C 12.8 °C 1028.0 hPa SW 7.4 km/h 7.4 km/h 44 % 0.0 mm
12:40 25.7 °C 12.2 °C 1028.0 hPa ESE 7.4 km/h 7.4 km/h 43 % 0.0 mm
12:45 25.3 °C 11.8 °C 1028.0 hPa NNW 7.4 km/h 7.4 km/h 43 % 0.0 mm
12:50 25.9 °C 12.7 °C 1028.0 hPa SE 5.6 km/h 5.6 km/h 44 % 0.0 mm
12:55 26.0 °C 12.4 °C 1028.0 hPa NE 9.3 km/h 9.3 km/h 43 % 0.0 mm
13:00 25.9 °C 12.3 °C 1028.0 hPa ENE 7.4 km/h 7.4 km/h 43 % 0.0 mm
13:05 25.6 °C 11.7 °C 1028.0 hPa NE 9.3 km/h 9.3 km/h 42 % 0.0 mm
13:10 25.8 °C 11.9 °C 1027.0 hPa SW 7.9 km/h 7.9 km/h 42 % 0.0 mm
13:15 26.4 °C 12.4 °C 1027.0 hPa East 1.9 km/h   42 % 0.0 mm
13:20 26.5 °C 12.6 °C 1027.0 hPa South 9.3 km/h 9.3 km/h 42 % 0.0 mm
13:25 26.1 °C 12.2 °C 1027.0 hPa ESE 10.0 km/h 10.0 km/h 42 % 0.0 mm
13:30 26.1 °C 11.8 °C 1027.0 hPa ESE 13.0 km/h 13.0 km/h 41 % 0.0 mm
13:35 25.9 °C 11.3 °C 1027.0 hPa SE 9.3 km/h 9.3 km/h 40 % 0.0 mm
13:40 25.9 °C 11.3 °C 1027.0 hPa SSE 13.0 km/h 13.0 km/h 40 % 0.0 mm
13:45 26.5 °C 11.8 °C 1027.0 hPa South 11.1 km/h 11.1 km/h 40 % 0.0 mm
13:50 26.1 °C 11.8 °C 1027.0 hPa SE 16.7 km/h 16.7 km/h 41 % 0.0 mm
13:55 25.7 °C 11.1 °C 1027.0 hPa East 12.2 km/h 12.2 km/h 40 % 0.0 mm
14:00 25.9 °C 11.6 °C 1027.0 hPa SE 9.5 km/h 9.5 km/h 41 % 0.0 mm
14:05 25.7 °C 11.1 °C 1027.0 hPa SSW 14.8 km/h 14.8 km/h 40 % 0.0 mm
14:10 25.7 °C 11.1 °C 1027.0 hPa ENE 18.5 km/h 18.5 km/h 40 % 0.0 mm
14:15 26.1 °C 11.4 °C 1027.0 hPa South 9.3 km/h 9.3 km/h 40 % 0.0 mm
14:20 26.4 °C 12.1 °C 1027.0 hPa ESE 10.0 km/h 10.0 km/h 41 % 0.0 mm
14:25 26.2 °C 11.6 °C 1027.0 hPa ENE 13.0 km/h 13.0 km/h 40 % 0.0 mm
14:30 26.3 °C 11.6 °C 1027.0 hPa SE 11.1 km/h 11.1 km/h 40 % 0.0 mm
14:35 26.3 °C 11.6 °C 1027.0 hPa ESE 20.9 km/h 20.9 km/h 40 % 0.0 mm
14:40 26.1 °C 11.1 °C 1026.0 hPa ESE 18.5 km/h 18.5 km/h 39 % 0.0 mm
14:45 26.4 °C 11.7 °C 1026.0 hPa NE 9.3 km/h 9.3 km/h 40 % 0.0 mm
14:50 26.4 °C 11.3 °C 1026.0 hPa SE 11.1 km/h 11.1 km/h 39 % 0.0 mm
14:55 26.1 °C 11.1 °C 1027.0 hPa SSW 18.5 km/h 18.5 km/h 39 % 0.0 mm
15:00 26.5 °C 11.4 °C 1027.0 hPa South 13.0 km/h 13.0 km/h 39 % 0.0 mm
15:01 26.5 °C 11.0 °C 1027.0 hPa ESE 13.0 km/h 13.0 km/h 38 % 0.0 mm
15:06 26.3 °C 11.2 °C 1027.0 hPa SSE 14.8 km/h 14.8 km/h 39 % 0.0 mm
15:11 26.2 °C 11.2 °C 1026.0 hPa SSE 14.8 km/h 14.8 km/h 39 % 0.0 mm
15:16 25.8 °C 10.8 °C 1026.0 hPa SE 18.5 km/h 18.5 km/h 39 % 0.0 mm
15:21 25.8 °C 10.8 °C 1026.0 hPa ESE 13.0 km/h 13.0 km/h 39 % 0.0 mm
15:26 26.3 °C 10.8 °C 1026.0 hPa ESE 9.3 km/h 9.3 km/h 38 % 0.0 mm
15:31 26.2 °C 11.2 °C 1026.0 hPa ESE 9.3 km/h 9.3 km/h 39 % 0.0 mm
15:36 27.2 °C 11.7 °C 1026.0 hPa SSW 5.6 km/h 5.6 km/h 38 % 0.0 mm
15:41 27.1 °C 11.2 °C 1026.0 hPa North 11.1 km/h 11.1 km/h 37 % 0.0 mm
15:46 28.0 °C 12.3 °C 1026.0 hPa West 17.5 km/h 17.5 km/h 38 % 0.0 mm
15:51 28.1 °C 11.6 °C 1026.0 hPa WSW 11.1 km/h 11.1 km/h 36 % 0.0 mm
15:56 28.2 °C 12.1 °C 1026.0 hPa SSE 5.3 km/h 5.3 km/h 37 % 0.0 mm
16:01 28.5 °C 12.4 °C 1026.0 hPa West 8.7 km/h 8.7 km/h 37 % 0.0 mm
16:06 27.8 °C 11.3 °C 1026.0 hPa SW 11.1 km/h 11.1 km/h 36 % 0.0 mm
16:11 27.8 °C 11.3 °C 1026.0 hPa SW 14.8 km/h 14.8 km/h 36 % 0.0 mm
16:16 28.0 °C 11.6 °C 1026.0 hPa WSW 5.6 km/h 5.6 km/h 36 % 0.0 mm
16:21 28.1 °C 11.6 °C 1026.0 hPa SW 13.0 km/h 13.0 km/h 36 % 0.0 mm
16:26 27.6 °C 10.8 °C 1026.0 hPa WSW 11.1 km/h 11.1 km/h 35 % 0.0 mm
16:31 28.0 °C 11.6 °C 1026.0 hPa NE 5.6 km/h 5.6 km/h 36 % 0.0 mm
16:36 28.2 °C 11.7 °C 1026.0 hPa South 9.3 km/h 9.3 km/h 36 % 0.0 mm
16:41 27.8 °C 11.3 °C 1026.0 hPa SW 13.0 km/h 13.0 km/h 36 % 0.0 mm
16:46 27.2 °C 10.4 °C 1026.0 hPa WSW 11.1 km/h 11.1 km/h 35 % 0.0 mm
16:51 27.3 °C 10.5 °C 1026.0 hPa South 16.7 km/h 16.7 km/h 35 % 0.0 mm
16:56 27.1 °C 10.3 °C 1026.0 hPa WSW 13.0 km/h 13.0 km/h 35 % 0.0 mm
17:01 26.9 °C 10.2 °C 1026.0 hPa SSW 14.8 km/h 14.8 km/h 35 % 0.0 mm
17:06 27.2 °C 10.4 °C 1026.0 hPa WNW 9.3 km/h 9.3 km/h 35 % 0.0 mm
17:11 27.3 °C 10.5 °C 1026.0 hPa SSW 10.3 km/h 10.3 km/h 35 % 0.0 mm
17:16 27.1 °C 10.3 °C 1026.0 hPa West 9.3 km/h 9.3 km/h 35 % 0.0 mm
17:21 27.0 °C 10.2 °C 1026.0 hPa West 8.7 km/h 8.7 km/h 35 % 0.0 mm
17:26 27.1 °C 10.3 °C 1026.0 hPa West 20.9 km/h 20.9 km/h 35 % 0.0 mm
17:31 26.5 °C 10.2 °C 1026.0 hPa WSW 13.0 km/h 13.0 km/h 36 % 0.0 mm
17:36 26.6 °C 10.3 °C 1026.0 hPa WSW 16.7 km/h 16.7 km/h 36 % 0.0 mm
17:41 26.3 °C 10.1 °C 1026.0 hPa South 13.0 km/h 13.0 km/h 36 % 0.0 mm
17:46 26.5 °C 10.2 °C 1026.0 hPa WSW 10.0 km/h 10.0 km/h 36 % 0.0 mm
17:51 26.2 °C 9.9 °C 1026.0 hPa SSW 13.0 km/h 13.0 km/h 36 % 0.0 mm
17:56 26.1 °C 10.3 °C 1026.0 hPa WSW 13.0 km/h 13.0 km/h 37 % 0.0 mm
18:01 25.9 °C 9.7 °C 1026.0 hPa SW 13.0 km/h 13.0 km/h 36 % 0.0 mm
18:06 26.1 °C 10.3 °C 1026.0 hPa SSE 9.3 km/h 9.3 km/h 37 % 0.0 mm
18:11 26.1 °C 10.3 °C 1026.0 hPa SSW 9.3 km/h 9.3 km/h 37 % 0.0 mm
18:16 26.0 °C 10.2 °C 1026.0 hPa SW 14.8 km/h 14.8 km/h 37 % 0.0 mm
18:21 25.5 °C 9.7 °C 1026.0 hPa SW 13.0 km/h 13.0 km/h 37 % 0.0 mm
18:26 25.6 °C 9.8 °C 1026.0 hPa SW 13.0 km/h 13.0 km/h 37 % 0.0 mm
18:27 25.6 °C 9.8 °C 1026.0 hPa SW 13.0 km/h 13.0 km/h 37 % 0.0 mm
18:32 25.6 °C 10.2 °C 1026.0 hPa SSW 11.1 km/h 11.1 km/h 38 % 0.0 mm
18:37 26.0 °C 10.6 °C 1026.0 hPa SSW 9.3 km/h 9.3 km/h 38 % 0.0 mm
18:42 25.6 °C 10.2 °C 1026.0 hPa WSW 11.1 km/h 11.1 km/h 38 % 0.0 mm
18:47 25.2 °C 9.9 °C 1026.0 hPa SW 11.1 km/h 11.1 km/h 38 % 0.0 mm
18:52 25.2 °C 9.9 °C 1026.0 hPa SSW 12.2 km/h 12.2 km/h 38 % 0.0 mm
18:57 25.0 °C 9.7 °C 1026.0 hPa SW 9.5 km/h 9.5 km/h 38 % 0.0 mm
19:02 24.8 °C 9.9 °C 1026.0 hPa SW 9.3 km/h 9.3 km/h 39 % 0.0 mm
19:07 24.7 °C 9.8 °C 1026.0 hPa WSW 9.3 km/h 9.3 km/h 39 % 0.0 mm
19:12 24.9 °C 10.0 °C 1024.9 hPa SW 11.4 km/h 11.4 km/h 39 % 0.0 mm
19:17 24.6 °C 9.7 °C 1024.9 hPa SW 7.4 km/h 7.4 km/h 39 % 0.0 mm
19:22 24.4 °C 9.9 °C 1024.9 hPa WSW 3.7 km/h 3.9 km/h 40 % 0.0 mm
19:25 18.2 °C 10.3 °C 1027.0 hPa Calm   3.2 km/h 60 % 0.0 mm
19:27 24.2 °C 9.7 °C 1024.9 hPa SSW 9.3 km/h 9.3 km/h 40 % 0.0 mm
19:32 24.2 °C 9.7 °C 1024.9 hPa WSW 1.9 km/h 1.9 km/h 40 % 0.0 mm
19:35 17.9 °C 10.3 °C 1027.0 hPa Calm     61 % 0.0 mm
19:37 24.0 °C 9.6 °C 1024.9 hPa SSE 5.6 km/h 5.6 km/h 40 % 0.0 mm
19:42 23.9 °C 9.5 °C 1024.9 hPa SW 4.2 km/h 4.2 km/h 40 % 0.0 mm
19:45 17.8 °C 10.2 °C 1027.0 hPa Calm     61 % 0.0 mm
19:47 23.7 °C 9.7 °C 1024.9 hPa SW 3.7 km/h   41 % 0.0 mm
19:52 23.6 °C 9.6 °C 1024.9 hPa West 3.7 km/h 3.7 km/h 41 % 0.0 mm
19:55 17.6 °C 10.0 °C 1027.0 hPa Calm   1.6 km/h 61 % 0.0 mm
19:57 23.5 °C 9.5 °C 1024.9 hPa SW 3.7 km/h 3.7 km/h 41 % 0.0 mm
19:58 23.5 °C 9.5 °C 1024.9 hPa SSW 3.7 km/h 3.7 km/h 41 % 0.0 mm
20:03 23.3 °C 9.3 °C 1024.9 hPa SW 3.7 km/h 3.9 km/h 41 % 0.0 mm
20:05 17.6 °C 10.2 °C 1027.0 hPa Calm   1.6 km/h 62 % 0.0 mm
20:08 23.3 °C 9.3 °C 1024.9 hPa WSW 5.3 km/h 5.3 km/h 41 % 0.0 mm
20:13 23.2 °C 9.2 °C 1024.9 hPa SW 5.3 km/h 5.3 km/h 41 % 0.0 mm
20:15 17.4 °C 10.1 °C 1027.0 hPa Calm     62 % 0.0 mm
20:18 23.0 °C 9.1 °C 1024.9 hPa SW 5.6 km/h 5.6 km/h 41 % 0.0 mm
20:23 22.8 °C 9.6 °C 1024.9 hPa SSW 3.7 km/h 3.7 km/h 43 % 0.0 mm
20:25 17.3 °C 10.2 °C 1027.0 hPa Calm   1.6 km/h 63 % 0.0 mm
20:28 22.7 °C 9.5 °C 1024.9 hPa WSW 1.9 km/h   43 % 0.0 mm
20:33 22.6 °C 9.4 °C 1024.9 hPa WSW 2.3 km/h   43 % 0.0 mm
20:35 17.2 °C 10.1 °C 1027.0 hPa NNE 1.6 km/h 3.2 km/h 63 % 0.0 mm
20:38 22.4 °C 9.2 °C 1024.9 hPa SW 1.9 km/h 1.9 km/h 43 % 0.0 mm
20:43 22.3 °C 9.4 °C 1026.0 hPa SW 1.9 km/h   44 % 0.0 mm
20:45 17.1 °C 10.0 °C 1026.0 hPa Calm   1.6 km/h 63 % 0.0 mm
20:48 22.0 °C 9.2 °C 1026.0 hPa Calm     44 % 0.0 mm
20:53 21.9 °C 9.1 °C 1026.0 hPa SW 1.9 km/h   44 % 0.0 mm
20:55 17.1 °C 10.2 °C 1026.0 hPa East 1.6 km/h 3.2 km/h 64 % 0.0 mm
20:58 21.7 °C 9.2 °C 1026.0 hPa SW 1.9 km/h   45 % 0.0 mm
21:03 21.5 °C 9.1 °C 1026.0 hPa SW 1.9 km/h 2.3 km/h 45 % 0.0 mm
21:05 17.0 °C 10.1 °C 1026.0 hPa ENE 1.6 km/h 3.2 km/h 64 % 0.0 mm
21:08 21.4 °C 9.3 °C 1026.0 hPa SW 1.9 km/h   46 % 0.0 mm
21:13 21.2 °C 9.1 °C 1026.0 hPa WSW 3.7 km/h 3.7 km/h 46 % 0.0 mm
21:15 16.9 °C 10.3 °C 1026.0 hPa Calm   1.6 km/h 65 % 0.0 mm
21:18 21.0 °C 9.3 °C 1026.0 hPa East 2.6 km/h   47 % 0.0 mm
21:23 21.0 °C 9.3 °C 1026.0 hPa ENE 1.9 km/h 1.9 km/h 47 % 0.0 mm
21:25 16.7 °C 10.1 °C 1024.9 hPa Calm     65 % 0.0 mm
21:28 20.9 °C 9.8 °C 1026.0 hPa Calm     49 % 0.0 mm
21:33 20.7 °C 9.6 °C 1026.0 hPa NE 1.9 km/h 1.9 km/h 49 % 0.0 mm
21:35 16.6 °C 10.2 °C 1024.9 hPa Calm     66 % 0.0 mm
21:38 20.7 °C 9.9 °C 1026.0 hPa NE 2.6 km/h 2.6 km/h 50 % 0.0 mm
21:43 20.5 °C 9.7 °C 1026.0 hPa NE 3.7 km/h 3.7 km/h 50 % 0.0 mm
21:45 16.2 °C 9.6 °C 1026.0 hPa ENE 3.2 km/h 4.8 km/h 65 % 0.0 mm
21:48 20.4 °C 9.6 °C 1026.0 hPa ENE 3.7 km/h 3.7 km/h 50 % 0.0 mm
21:53 20.3 °C 9.8 °C 1024.9 hPa ENE 2.6 km/h 2.6 km/h 51 % 0.0 mm
21:55 15.9 °C 9.8 °C 1026.0 hPa Calm   4.8 km/h 67 % 0.0 mm
21:58 20.2 °C 9.7 °C 1024.9 hPa NE 1.9 km/h 1.9 km/h 51 % 0.0 mm
22:03 20.1 °C 9.7 °C 1024.9 hPa NNE 3.7 km/h 3.7 km/h 51 % 0.0 mm
22:05 15.8 °C 9.7 °C 1026.0 hPa SW 1.6 km/h 3.2 km/h 67 % 0.0 mm
22:08 20.0 °C 9.8 °C 1026.0 hPa ENE 3.7 km/h 3.7 km/h 52 % 0.0 mm
22:13 19.8 °C 9.9 °C 1026.0 hPa ENE 3.7 km/h 3.7 km/h 53 % 0.0 mm
22:15 15.6 °C 9.5 °C 1026.0 hPa SW 3.2 km/h 3.2 km/h 67 % 0.0 mm
22:18 19.8 °C 9.9 °C 1026.0 hPa NE 1.9 km/h 1.9 km/h 53 % 0.0 mm
22:23 19.7 °C 9.8 °C 1026.0 hPa North 3.7 km/h 3.7 km/h 53 % 0.0 mm
22:25 15.1 °C 9.0 °C 1026.0 hPa SW 3.2 km/h 4.8 km/h 67 % 0.0 mm
22:28 19.6 °C 10.1 °C 1026.0 hPa NNE 3.7 km/h 3.7 km/h 54 % 0.0 mm
22:33 19.5 °C 9.9 °C 1026.0 hPa Calm     54 % 0.0 mm
22:35 15.3 °C 9.7 °C 1026.0 hPa Calm   4.8 km/h 69 % 0.0 mm
22:38 19.4 °C 10.1 °C 1027.0 hPa Calm     55 % 0.0 mm
22:43 19.3 °C 10.1 °C 1027.0 hPa Calm     55 % 0.0 mm
22:45 15.4 °C 9.7 °C 1026.0 hPa Calm   3.2 km/h 69 % 0.0 mm
22:48 19.3 °C 10.1 °C 1027.0 hPa Calm     55 % 0.0 mm
22:53 19.3 °C 10.3 °C 1027.0 hPa NNE 3.7 km/h 3.7 km/h 56 % 0.0 mm
22:55 15.7 °C 10.2 °C 1026.0 hPa WSW 1.6 km/h 1.6 km/h 70 % 0.0 mm
22:58 19.2 °C 10.2 °C 1027.0 hPa NNW 1.9 km/h   56 % 0.0 mm
23:03 19.1 °C 10.4 °C 1027.0 hPa Calm     57 % 0.0 mm
23:05 15.7 °C 10.0 °C 1026.0 hPa Calm   1.6 km/h 69 % 0.0 mm
23:08 19.0 °C 10.3 °C 1027.0 hPa Calm     57 % 0.0 mm
23:13 18.9 °C 10.4 °C 1027.0 hPa Calm     58 % 0.0 mm
23:15 15.6 °C 9.9 °C 1026.0 hPa North 1.6 km/h 3.2 km/h 69 % 0.0 mm
23:18 18.8 °C 10.3 °C 1027.0 hPa Calm     58 % 0.0 mm
23:23 18.8 °C 10.6 °C 1027.0 hPa Calm     59 % 0.0 mm
23:25 15.4 °C 9.9 °C 1026.0 hPa Calm   1.6 km/h 70 % 0.0 mm
23:28 18.7 °C 10.5 °C 1027.0 hPa Calm     59 % 0.0 mm
23:33 18.7 °C 10.5 °C 1027.0 hPa Calm     59 % 0.0 mm
23:35 15.3 °C 9.7 °C 1026.0 hPa SW 1.6 km/h 3.2 km/h 69 % 0.0 mm
23:38 18.6 °C 10.4 °C 1027.0 hPa Calm     59 % 0.0 mm
23:43 18.6 °C 10.4 °C 1027.0 hPa Calm     59 % 0.0 mm
23:45 15.4 °C 9.7 °C 1026.0 hPa Calm   3.2 km/h 69 % 0.0 mm
23:48 18.6 °C 10.4 °C 1027.0 hPa Calm     59 % 0.0 mm
23:53 18.6 °C 10.4 °C 1026.0 hPa NNW 1.9 km/h   59 % 0.0 mm
23:55 15.6 °C 9.9 °C 1026.0 hPa Calm   3.2 km/h 69 % 0.0 mm
23:58 18.5 °C 10.6 °C 1026.0 hPa Calm     60 % 0.0 mm
Meteo Sesrovires
Elogis d' Weather Underground - 3.75 mb

Guio original per  Jim McMurry - jmcmurry@mwt.net Adaptat per a la plantilla per  Wim van der Kuil - Leuven-Template.eu

Trobareu la nostra informacio del temps tambe a:

Weather Underground

AWEKAS